Terminal Aerodrome Forecast
Issued by NWS

Home | Current Version | Previous Version | Text Only | Print | Product List | Glossary On
Versions: 1 2 3 4 5 6 7 8 9 10 11 12 13 14 15 16
059
FTUS43 KEAX 271134 CCA
TAFMKC
TAF COR
KMKC 271134Z 2712/2812 VRB03KT P6SM SCT250
      TEMPO 2712/2713 2SM BR
     FM280800 18012KT P6SM BKN150=

USA.gov is the U.S. government's official web portal to all federal, state and local government web resources and services.